sensor_id;sensor_type;location;lat;lon;timestamp;temperature;humidity
32506;DHT22;18955;51.224;8.482;2023-09-30T00:00:56;14.80;85.30
32506;DHT22;18955;51.224;8.482;2023-09-30T00:03:23;14.80;85.80
32506;DHT22;18955;51.224;8.482;2023-09-30T00:05:49;14.80;85.40
32506;DHT22;18955;51.224;8.482;2023-09-30T00:08:15;14.80;85.50
32506;DHT22;18955;51.224;8.482;2023-09-30T00:10:42;14.70;85.60
32506;DHT22;18955;51.224;8.482;2023-09-30T00:13:08;14.70;85.30
32506;DHT22;18955;51.224;8.482;2023-09-30T00:15:35;14.70;85.40
32506;DHT22;18955;51.224;8.482;2023-09-30T00:18:01;14.70;85.30
32506;DHT22;18955;51.224;8.482;2023-09-30T00:20:28;14.70;85.50
32506;DHT22;18955;51.224;8.482;2023-09-30T00:22:54;14.60;85.30
32506;DHT22;18955;51.224;8.482;2023-09-30T00:25:21;14.70;85.40
32506;DHT22;18955;51.224;8.482;2023-09-30T00:27:48;14.60;85.60
32506;DHT22;18955;51.224;8.482;2023-09-30T00:30:14;14.60;85.30
32506;DHT22;18955;51.224;8.482;2023-09-30T00:32:40;14.60;85.40
32506;DHT22;18955;51.224;8.482;2023-09-30T00:35:07;14.60;85.50
32506;DHT22;18955;51.224;8.482;2023-09-30T00:37:38;14.50;85.40
32506;DHT22;18955;51.224;8.482;2023-09-30T00:40:05;14.50;85.20
32506;DHT22;18955;51.224;8.482;2023-09-30T00:42:32;14.50;85.30
32506;DHT22;18955;51.224;8.482;2023-09-30T00:44:58;14.50;85.60
32506;DHT22;18955;51.224;8.482;2023-09-30T00:47:25;14.50;85.30
32506;DHT22;18955;51.224;8.482;2023-09-30T00:49:52;14.40;85.30
32506;DHT22;18955;51.224;8.482;2023-09-30T00:52:19;14.40;85.40
32506;DHT22;18955;51.224;8.482;2023-09-30T00:54:47;14.40;85.30
32506;DHT22;18955;51.224;8.482;2023-09-30T00:57:15;14.40;85.40
32506;DHT22;18955;51.224;8.482;2023-09-30T00:59:41;14.40;85.40
32506;DHT22;18955;51.224;8.482;2023-09-30T01:02:07;14.40;85.40
32506;DHT22;18955;51.224;8.482;2023-09-30T01:04:34;14.40;85.50
32506;DHT22;18955;51.224;8.482;2023-09-30T01:07:01;14.30;85.30
32506;DHT22;18955;51.224;8.482;2023-09-30T01:09:27;14.30;85.30
32506;DHT22;18955;51.224;8.482;2023-09-30T01:11:53;14.30;85.40
32506;DHT22;18955;51.224;8.482;2023-09-30T01:14:33;14.30;85.30
32506;DHT22;18955;51.224;8.482;2023-09-30T01:17:04;14.30;85.40
32506;DHT22;18955;51.224;8.482;2023-09-30T01:19:34;14.30;85.60
32506;DHT22;18955;51.224;8.482;2023-09-30T01:22:01;14.20;85.50
32506;DHT22;18955;51.224;8.482;2023-09-30T01:24:38;14.20;85.50
32506;DHT22;18955;51.224;8.482;2023-09-30T01:27:07;14.20;85.50
32506;DHT22;18955;51.224;8.482;2023-09-30T01:29:34;14.20;85.60
32506;DHT22;18955;51.224;8.482;2023-09-30T01:32:01;14.20;85.60
32506;DHT22;18955;51.224;8.482;2023-09-30T01:34:27;14.20;85.60
32506;DHT22;18955;51.224;8.482;2023-09-30T01:36:53;14.20;85.70
32506;DHT22;18955;51.224;8.482;2023-09-30T01:39:20;14.10;85.70
32506;DHT22;18955;51.224;8.482;2023-09-30T01:41:46;14.10;85.80
32506;DHT22;18955;51.224;8.482;2023-09-30T01:44:12;14.10;85.70
32506;DHT22;18955;51.224;8.482;2023-09-30T01:46:39;14.10;85.80
32506;DHT22;18955;51.224;8.482;2023-09-30T01:49:06;14.10;85.80
32506;DHT22;18955;51.224;8.482;2023-09-30T01:51:32;14.10;85.80
32506;DHT22;18955;51.224;8.482;2023-09-30T01:53:58;14.10;85.90
32506;DHT22;18955;51.224;8.482;2023-09-30T01:56:25;14.00;85.80
32506;DHT22;18955;51.224;8.482;2023-09-30T01:58:51;14.00;85.80
32506;DHT22;18955;51.224;8.482;2023-09-30T02:01:17;14.00;85.80
32506;DHT22;18955;51.224;8.482;2023-09-30T02:03:44;14.00;85.80
32506;DHT22;18955;51.224;8.482;2023-09-30T02:06:10;14.00;85.90
32506;DHT22;18955;51.224;8.482;2023-09-30T02:08:36;14.00;85.90
32506;DHT22;18955;51.224;8.482;2023-09-30T02:11:03;14.00;85.90
32506;DHT22;18955;51.224;8.482;2023-09-30T02:13:34;13.90;85.90
32506;DHT22;18955;51.224;8.482;2023-09-30T02:16:03;13.90;85.80
32506;DHT22;18955;51.224;8.482;2023-09-30T02:18:29;13.90;85.80
32506;DHT22;18955;51.224;8.482;2023-09-30T02:20:58;13.90;85.80
32506;DHT22;18955;51.224;8.482;2023-09-30T02:23:25;13.90;85.90
32506;DHT22;18955;51.224;8.482;2023-09-30T02:25:51;13.90;85.90
32506;DHT22;18955;51.224;8.482;2023-09-30T02:28:18;13.90;85.90
32506;DHT22;18955;51.224;8.482;2023-09-30T02:30:44;13.80;85.90
32506;DHT22;18955;51.224;8.482;2023-09-30T02:33:11;13.80;86.00
32506;DHT22;18955;51.224;8.482;2023-09-30T02:35:37;13.80;86.00
32506;DHT22;18955;51.224;8.482;2023-09-30T02:38:04;13.80;86.00
32506;DHT22;18955;51.224;8.482;2023-09-30T02:40:31;13.80;85.90
32506;DHT22;18955;51.224;8.482;2023-09-30T02:42:57;13.80;85.90
32506;DHT22;18955;51.224;8.482;2023-09-30T02:45:24;13.80;85.90
32506;DHT22;18955;51.224;8.482;2023-09-30T02:47:50;13.70;85.80
32506;DHT22;18955;51.224;8.482;2023-09-30T02:50:16;13.70;85.80
32506;DHT22;18955;51.224;8.482;2023-09-30T02:52:42;13.70;85.80
32506;DHT22;18955;51.224;8.482;2023-09-30T02:55:10;13.70;85.80
32506;DHT22;18955;51.224;8.482;2023-09-30T02:57:36;13.70;85.90
32506;DHT22;18955;51.224;8.482;2023-09-30T03:00:04;13.70;85.90
32506;DHT22;18955;51.224;8.482;2023-09-30T03:02:53;13.70;86.40
32506;DHT22;18955;51.224;8.482;2023-09-30T03:05:20;13.70;85.90
32506;DHT22;18955;51.224;8.482;2023-09-30T03:07:46;13.60;85.90
32506;DHT22;18955;51.224;8.482;2023-09-30T03:10:13;13.60;85.90
32506;DHT22;18955;51.224;8.482;2023-09-30T03:12:52;13.60;85.80
32506;DHT22;18955;51.224;8.482;2023-09-30T03:15:19;13.60;85.90
32506;DHT22;18955;51.224;8.482;2023-09-30T03:17:45;13.60;85.90
32506;DHT22;18955;51.224;8.482;2023-09-30T03:20:12;13.60;85.90
32506;DHT22;18955;51.224;8.482;2023-09-30T03:22:41;13.60;86.00
32506;DHT22;18955;51.224;8.482;2023-09-30T03:25:14;13.50;85.90
32506;DHT22;18955;51.224;8.482;2023-09-30T03:27:42;13.50;86.50
32506;DHT22;18955;51.224;8.482;2023-09-30T03:30:09;13.50;86.40
32506;DHT22;18955;51.224;8.482;2023-09-30T03:32:35;13.50;85.90
32506;DHT22;18955;51.224;8.482;2023-09-30T03:35:05;13.50;85.90
32506;DHT22;18955;51.224;8.482;2023-09-30T03:37:32;13.50;86.00
32506;DHT22;18955;51.224;8.482;2023-09-30T03:39:58;13.40;85.90
32506;DHT22;18955;51.224;8.482;2023-09-30T03:42:26;13.50;86.00
32506;DHT22;18955;51.224;8.482;2023-09-30T03:44:55;13.50;86.00
32506;DHT22;18955;51.224;8.482;2023-09-30T03:47:22;13.40;86.00
32506;DHT22;18955;51.224;8.482;2023-09-30T03:49:48;13.40;86.10
32506;DHT22;18955;51.224;8.482;2023-09-30T03:52:14;13.40;86.10
32506;DHT22;18955;51.224;8.482;2023-09-30T03:54:40;13.40;86.20
32506;DHT22;18955;51.224;8.482;2023-09-30T03:57:07;13.40;86.20
32506;DHT22;18955;51.224;8.482;2023-09-30T03:59:33;13.40;86.20
32506;DHT22;18955;51.224;8.482;2023-09-30T04:02:00;13.30;86.10
32506;DHT22;18955;51.224;8.482;2023-09-30T04:04:27;13.30;86.10
32506;DHT22;18955;51.224;8.482;2023-09-30T04:06:53;13.30;86.10
32506;DHT22;18955;51.224;8.482;2023-09-30T04:09:19;13.30;86.20
32506;DHT22;18955;51.224;8.482;2023-09-30T04:11:45;13.30;86.20
32506;DHT22;18955;51.224;8.482;2023-09-30T04:14:12;13.30;86.20
32506;DHT22;18955;51.224;8.482;2023-09-30T04:16:38;13.30;86.20
32506;DHT22;18955;51.224;8.482;2023-09-30T04:19:05;13.30;86.20
32506;DHT22;18955;51.224;8.482;2023-09-30T04:21:33;13.30;86.20
32506;DHT22;18955;51.224;8.482;2023-09-30T04:24:00;13.30;86.20
32506;DHT22;18955;51.224;8.482;2023-09-30T04:26:27;13.20;86.20
32506;DHT22;18955;51.224;8.482;2023-09-30T04:28:53;13.20;86.10
32506;DHT22;18955;51.224;8.482;2023-09-30T04:31:20;13.20;86.10
32506;DHT22;18955;51.224;8.482;2023-09-30T04:33:48;13.20;86.10
32506;DHT22;18955;51.224;8.482;2023-09-30T04:36:17;13.20;86.60
32506;DHT22;18955;51.224;8.482;2023-09-30T04:38:43;13.20;86.00
32506;DHT22;18955;51.224;8.482;2023-09-30T04:41:09;13.10;85.90
32506;DHT22;18955;51.224;8.482;2023-09-30T04:43:35;13.10;85.90
32506;DHT22;18955;51.224;8.482;2023-09-30T04:46:06;13.10;86.00
32506;DHT22;18955;51.224;8.482;2023-09-30T04:48:35;13.10;85.90
32506;DHT22;18955;51.224;8.482;2023-09-30T04:51:05;13.10;85.80
32506;DHT22;18955;51.224;8.482;2023-09-30T04:53:32;13.10;85.70
32506;DHT22;18955;51.224;8.482;2023-09-30T04:55:59;13.10;85.70
32506;DHT22;18955;51.224;8.482;2023-09-30T04:58:26;13.10;85.60
32506;DHT22;18955;51.224;8.482;2023-09-30T05:00:53;13.10;85.60
32506;DHT22;18955;51.224;8.482;2023-09-30T05:03:19;13.00;85.50
32506;DHT22;18955;51.224;8.482;2023-09-30T05:05:45;13.00;85.50
32506;DHT22;18955;51.224;8.482;2023-09-30T05:08:11;13.00;85.40
32506;DHT22;18955;51.224;8.482;2023-09-30T05:10:40;13.00;85.40
32506;DHT22;18955;51.224;8.482;2023-09-30T05:13:06;13.00;85.40
32506;DHT22;18955;51.224;8.482;2023-09-30T05:15:32;13.00;85.40
32506;DHT22;18955;51.224;8.482;2023-09-30T05:18:01;13.00;85.30
32506;DHT22;18955;51.224;8.482;2023-09-30T05:20:28;12.90;85.20
32506;DHT22;18955;51.224;8.482;2023-09-30T05:22:54;12.90;85.20
32506;DHT22;18955;51.224;8.482;2023-09-30T05:25:20;12.90;85.20
32506;DHT22;18955;51.224;8.482;2023-09-30T05:27:51;12.90;85.20
32506;DHT22;18955;51.224;8.482;2023-09-30T05:30:18;12.90;85.40
32506;DHT22;18955;51.224;8.482;2023-09-30T05:32:46;12.80;85.00
32506;DHT22;18955;51.224;8.482;2023-09-30T05:35:13;12.80;84.90
32506;DHT22;18955;51.224;8.482;2023-09-30T05:37:40;12.80;84.90
32506;DHT22;18955;51.224;8.482;2023-09-30T05:40:07;12.80;85.00
32506;DHT22;18955;51.224;8.482;2023-09-30T05:42:44;12.80;84.80
32506;DHT22;18955;51.224;8.482;2023-09-30T05:45:11;12.80;84.80
32506;DHT22;18955;51.224;8.482;2023-09-30T05:47:41;12.80;84.70
32506;DHT22;18955;51.224;8.482;2023-09-30T05:50:08;12.70;84.50
32506;DHT22;18955;51.224;8.482;2023-09-30T05:52:35;12.70;84.60
32506;DHT22;18955;51.224;8.482;2023-09-30T05:55:02;12.70;84.60
32506;DHT22;18955;51.224;8.482;2023-09-30T05:57:28;12.70;84.60
32506;DHT22;18955;51.224;8.482;2023-09-30T05:59:54;12.70;84.70
32506;DHT22;18955;51.224;8.482;2023-09-30T06:02:21;12.60;84.60
32506;DHT22;18955;51.224;8.482;2023-09-30T06:04:47;12.60;84.70
32506;DHT22;18955;51.224;8.482;2023-09-30T06:07:13;12.60;84.80
32506;DHT22;18955;51.224;8.482;2023-09-30T06:09:39;12.60;84.70
32506;DHT22;18955;51.224;8.482;2023-09-30T06:12:06;12.60;84.70
32506;DHT22;18955;51.224;8.482;2023-09-30T06:14:33;12.60;84.70
32506;DHT22;18955;51.224;8.482;2023-09-30T06:16:59;12.60;84.70
32506;DHT22;18955;51.224;8.482;2023-09-30T06:19:25;12.50;84.60
32506;DHT22;18955;51.224;8.482;2023-09-30T06:21:52;12.50;84.60
32506;DHT22;18955;51.224;8.482;2023-09-30T06:24:18;12.60;84.70
32506;DHT22;18955;51.224;8.482;2023-09-30T06:26:47;12.50;84.70
32506;DHT22;18955;51.224;8.482;2023-09-30T06:29:17;12.50;84.80
32506;DHT22;18955;51.224;8.482;2023-09-30T06:31:43;12.50;84.80
32506;DHT22;18955;51.224;8.482;2023-09-30T06:34:10;12.50;84.80
32506;DHT22;18955;51.224;8.482;2023-09-30T06:36:37;12.50;84.80
32506;DHT22;18955;51.224;8.482;2023-09-30T06:39:03;12.50;84.80
32506;DHT22;18955;51.224;8.482;2023-09-30T06:41:31;12.40;84.70
32506;DHT22;18955;51.224;8.482;2023-09-30T06:44:00;12.40;84.80
32506;DHT22;18955;51.224;8.482;2023-09-30T06:46:26;12.40;84.80
32506;DHT22;18955;51.224;8.482;2023-09-30T06:48:52;12.40;84.90
32506;DHT22;18955;51.224;8.482;2023-09-30T06:51:18;12.40;85.00
32506;DHT22;18955;51.224;8.482;2023-09-30T06:53:45;12.40;85.00
32506;DHT22;18955;51.224;8.482;2023-09-30T06:56:12;12.40;85.10
32506;DHT22;18955;51.224;8.482;2023-09-30T06:58:39;12.40;85.10
32506;DHT22;18955;51.224;8.482;2023-09-30T07:01:05;12.40;85.20
32506;DHT22;18955;51.224;8.482;2023-09-30T07:03:32;12.40;85.20
32506;DHT22;18955;51.224;8.482;2023-09-30T07:05:59;12.40;85.30
32506;DHT22;18955;51.224;8.482;2023-09-30T07:08:29;12.40;85.40
32506;DHT22;18955;51.224;8.482;2023-09-30T07:10:56;12.30;85.90
32506;DHT22;18955;51.224;8.482;2023-09-30T07:13:22;12.40;85.50
32506;DHT22;18955;51.224;8.482;2023-09-30T07:15:48;12.30;85.50
32506;DHT22;18955;51.224;8.482;2023-09-30T07:18:15;12.30;85.60
32506;DHT22;18955;51.224;8.482;2023-09-30T07:20:41;12.30;85.60
32506;DHT22;18955;51.224;8.482;2023-09-30T07:23:07;12.30;85.70
32506;DHT22;18955;51.224;8.482;2023-09-30T07:25:35;12.30;85.70
32506;DHT22;18955;51.224;8.482;2023-09-30T07:28:02;12.30;85.80
32506;DHT22;18955;51.224;8.482;2023-09-30T07:30:28;12.30;85.90
32506;DHT22;18955;51.224;8.482;2023-09-30T07:32:54;12.30;85.90
32506;DHT22;18955;51.224;8.482;2023-09-30T07:35:20;12.30;85.80
32506;DHT22;18955;51.224;8.482;2023-09-30T07:37:46;12.30;85.70
32506;DHT22;18955;51.224;8.482;2023-09-30T07:40:13;12.40;85.80
32506;DHT22;18955;51.224;8.482;2023-09-30T07:42:39;12.30;86.40
32506;DHT22;18955;51.224;8.482;2023-09-30T07:45:06;12.30;85.90
32506;DHT22;18955;51.224;8.482;2023-09-30T07:47:33;12.30;86.00
32506;DHT22;18955;51.224;8.482;2023-09-30T07:50:00;12.30;86.00
32506;DHT22;18955;51.224;8.482;2023-09-30T07:52:32;12.30;86.00
32506;DHT22;18955;51.224;8.482;2023-09-30T07:54:58;12.30;86.00
32506;DHT22;18955;51.224;8.482;2023-09-30T07:57:24;12.30;86.20
32506;DHT22;18955;51.224;8.482;2023-09-30T07:59:50;12.30;86.10
32506;DHT22;18955;51.224;8.482;2023-09-30T08:02:17;12.30;86.20
32506;DHT22;18955;51.224;8.482;2023-09-30T08:04:43;12.30;86.20
32506;DHT22;18955;51.224;8.482;2023-09-30T08:07:09;12.30;86.20
32506;DHT22;18955;51.224;8.482;2023-09-30T08:09:36;12.30;86.20
32506;DHT22;18955;51.224;8.482;2023-09-30T08:12:03;12.30;86.20
32506;DHT22;18955;51.224;8.482;2023-09-30T08:14:30;12.30;86.30
32506;DHT22;18955;51.224;8.482;2023-09-30T08:16:57;12.30;86.30
32506;DHT22;18955;51.224;8.482;2023-09-30T08:19:23;12.40;86.40
32506;DHT22;18955;51.224;8.482;2023-09-30T08:21:49;12.30;86.40
32506;DHT22;18955;51.224;8.482;2023-09-30T08:24:15;12.30;86.30
32506;DHT22;18955;51.224;8.482;2023-09-30T08:26:41;12.30;86.40
32506;DHT22;18955;51.224;8.482;2023-09-30T08:29:08;12.30;86.30
32506;DHT22;18955;51.224;8.482;2023-09-30T08:31:34;12.40;86.50
32506;DHT22;18955;51.224;8.482;2023-09-30T08:34:00;12.40;86.70
32506;DHT22;18955;51.224;8.482;2023-09-30T08:36:30;12.40;87.20
32506;DHT22;18955;51.224;8.482;2023-09-30T08:38:57;12.40;87.10
32506;DHT22;18955;51.224;8.482;2023-09-30T08:41:33;12.40;86.80
32506;DHT22;18955;51.224;8.482;2023-09-30T08:44:01;12.40;86.90
32506;DHT22;18955;51.224;8.482;2023-09-30T08:46:33;12.40;87.00
32506;DHT22;18955;51.224;8.482;2023-09-30T08:49:04;12.40;86.90
32506;DHT22;18955;51.224;8.482;2023-09-30T08:51:32;12.40;86.80
32506;DHT22;18955;51.224;8.482;2023-09-30T08:53:59;12.40;86.90
32506;DHT22;18955;51.224;8.482;2023-09-30T08:56:29;12.40;86.90
32506;DHT22;18955;51.224;8.482;2023-09-30T08:58:58;12.40;86.70
32506;DHT22;18955;51.224;8.482;2023-09-30T09:01:29;12.40;86.80
32506;DHT22;18955;51.224;8.482;2023-09-30T09:03:56;12.40;86.70
32506;DHT22;18955;51.224;8.482;2023-09-30T09:06:24;12.40;86.70
32506;DHT22;18955;51.224;8.482;2023-09-30T09:08:51;12.40;86.70
32506;DHT22;18955;51.224;8.482;2023-09-30T09:11:17;12.40;86.60
32506;DHT22;18955;51.224;8.482;2023-09-30T09:13:48;12.40;86.50
32506;DHT22;18955;51.224;8.482;2023-09-30T09:16:16;12.40;86.50
32506;DHT22;18955;51.224;8.482;2023-09-30T09:18:46;12.40;86.40
32506;DHT22;18955;51.224;8.482;2023-09-30T09:21:22;12.40;86.50
32506;DHT22;18955;51.224;8.482;2023-09-30T09:23:50;12.40;86.30
32506;DHT22;18955;51.224;8.482;2023-09-30T09:28:50;12.50;86.40
32506;DHT22;18955;51.224;8.482;2023-09-30T09:31:23;12.50;86.40
32506;DHT22;18955;51.224;8.482;2023-09-30T09:33:52;12.50;86.40
32506;DHT22;18955;51.224;8.482;2023-09-30T09:36:20;12.50;86.40
32506;DHT22;18955;51.224;8.482;2023-09-30T09:38:49;12.50;86.40
32506;DHT22;18955;51.224;8.482;2023-09-30T09:41:19;12.50;86.40
32506;DHT22;18955;51.224;8.482;2023-09-30T09:43:49;12.50;86.40
32506;DHT22;18955;51.224;8.482;2023-09-30T09:46:17;12.50;86.40
32506;DHT22;18955;51.224;8.482;2023-09-30T09:48:44;12.50;86.40
32506;DHT22;18955;51.224;8.482;2023-09-30T09:51:13;12.50;86.40
32506;DHT22;18955;51.224;8.482;2023-09-30T09:53:41;12.50;86.40
32506;DHT22;18955;51.224;8.482;2023-09-30T09:56:08;12.50;86.40
32506;DHT22;18955;51.224;8.482;2023-09-30T09:58:40;12.50;86.40
32506;DHT22;18955;51.224;8.482;2023-09-30T10:01:09;12.50;86.90
32506;DHT22;18955;51.224;8.482;2023-09-30T10:03:40;12.50;86.40
32506;DHT22;18955;51.224;8.482;2023-09-30T10:06:06;12.50;86.40
32506;DHT22;18955;51.224;8.482;2023-09-30T10:08:40;12.50;86.40
32506;DHT22;18955;51.224;8.482;2023-09-30T10:11:09;12.50;86.30
32506;DHT22;18955;51.224;8.482;2023-09-30T10:13:57;12.50;86.30
32506;DHT22;18955;51.224;8.482;2023-09-30T10:19:19;12.60;86.30
32506;DHT22;18955;51.224;8.482;2023-09-30T10:24:43;12.60;86.20
32506;DHT22;18955;51.224;8.482;2023-09-30T10:40:53;12.60;86.30
32506;DHT22;18955;51.224;8.482;2023-09-30T10:46:29;12.60;86.30
32506;DHT22;18955;51.224;8.482;2023-09-30T10:48:51;12.60;86.30
32506;DHT22;18955;51.224;8.482;2023-09-30T10:51:19;12.60;86.10
32506;DHT22;18955;51.224;8.482;2023-09-30T10:53:54;12.60;86.20
32506;DHT22;18955;51.224;8.482;2023-09-30T10:56:32;12.70;86.20
32506;DHT22;18955;51.224;8.482;2023-09-30T10:58:59;12.70;86.00
32506;DHT22;18955;51.224;8.482;2023-09-30T11:01:32;12.60;85.90
32506;DHT22;18955;51.224;8.482;2023-09-30T11:04:02;12.70;85.90
32506;DHT22;18955;51.224;8.482;2023-09-30T11:06:31;12.70;85.90
32506;DHT22;18955;51.224;8.482;2023-09-30T11:08:59;12.70;85.90
32506;DHT22;18955;51.224;8.482;2023-09-30T11:11:46;12.70;85.90
32506;DHT22;18955;51.224;8.482;2023-09-30T11:14:29;12.70;85.90
32506;DHT22;18955;51.224;8.482;2023-09-30T11:17:03;12.80;85.90
32506;DHT22;18955;51.224;8.482;2023-09-30T11:19:36;12.80;85.90
32506;DHT22;18955;51.224;8.482;2023-09-30T11:22:03;12.80;85.70
32506;DHT22;18955;51.224;8.482;2023-09-30T11:24:35;12.80;85.60
32506;DHT22;18955;51.224;8.482;2023-09-30T11:27:02;12.80;85.40
32506;DHT22;18955;51.224;8.482;2023-09-30T11:29:29;12.80;85.60
32506;DHT22;18955;51.224;8.482;2023-09-30T11:31:55;12.80;85.50
32506;DHT22;18955;51.224;8.482;2023-09-30T11:34:31;12.80;85.50
32506;DHT22;18955;51.224;8.482;2023-09-30T11:37:00;12.80;85.50
32506;DHT22;18955;51.224;8.482;2023-09-30T11:39:28;12.80;85.60
32506;DHT22;18955;51.224;8.482;2023-09-30T11:41:55;12.90;85.60
32506;DHT22;18955;51.224;8.482;2023-09-30T11:44:24;12.90;85.60
32506;DHT22;18955;51.224;8.482;2023-09-30T11:46:55;12.90;85.50
32506;DHT22;18955;51.224;8.482;2023-09-30T11:49:38;12.90;85.20
32506;DHT22;18955;51.224;8.482;2023-09-30T11:52:07;12.90;85.30
32506;DHT22;18955;51.224;8.482;2023-09-30T11:54:34;12.90;84.80
32506;DHT22;18955;51.224;8.482;2023-09-30T11:57:03;12.90;84.90
32506;DHT22;18955;51.224;8.482;2023-09-30T11:59:30;12.90;84.90
32506;DHT22;18955;51.224;8.482;2023-09-30T12:01:57;12.90;85.10
32506;DHT22;18955;51.224;8.482;2023-09-30T12:04:23;12.90;84.80
32506;DHT22;18955;51.224;8.482;2023-09-30T12:06:50;12.90;84.80
32506;DHT22;18955;51.224;8.482;2023-09-30T12:09:16;12.90;84.60
32506;DHT22;18955;51.224;8.482;2023-09-30T12:11:48;13.00;84.70
32506;DHT22;18955;51.224;8.482;2023-09-30T12:14:15;13.00;84.70
32506;DHT22;18955;51.224;8.482;2023-09-30T12:16:41;13.00;84.70
32506;DHT22;18955;51.224;8.482;2023-09-30T12:19:10;13.00;84.70
32506;DHT22;18955;51.224;8.482;2023-09-30T12:21:36;13.00;84.60
32506;DHT22;18955;51.224;8.482;2023-09-30T12:24:03;13.00;84.50
32506;DHT22;18955;51.224;8.482;2023-09-30T12:26:33;13.00;84.40
32506;DHT22;18955;51.224;8.482;2023-09-30T12:29:00;13.00;84.20
32506;DHT22;18955;51.224;8.482;2023-09-30T12:31:26;13.00;84.40
32506;DHT22;18955;51.224;8.482;2023-09-30T12:33:52;13.10;84.60
32506;DHT22;18955;51.224;8.482;2023-09-30T12:36:21;13.10;84.50
32506;DHT22;18955;51.224;8.482;2023-09-30T12:38:47;13.10;84.60
32506;DHT22;18955;51.224;8.482;2023-09-30T12:41:14;13.10;84.30
32506;DHT22;18955;51.224;8.482;2023-09-30T12:43:41;13.10;84.00
32506;DHT22;18955;51.224;8.482;2023-09-30T12:46:10;13.20;84.00
32506;DHT22;18955;51.224;8.482;2023-09-30T12:48:40;13.20;84.00
32506;DHT22;18955;51.224;8.482;2023-09-30T12:51:06;13.20;83.70
32506;DHT22;18955;51.224;8.482;2023-09-30T12:53:33;13.20;83.70
32506;DHT22;18955;51.224;8.482;2023-09-30T12:56:00;13.20;84.00
32506;DHT22;18955;51.224;8.482;2023-09-30T12:58:26;13.20;84.00
32506;DHT22;18955;51.224;8.482;2023-09-30T13:00:55;13.20;84.00
32506;DHT22;18955;51.224;8.482;2023-09-30T13:03:22;13.20;84.20
32506;DHT22;18955;51.224;8.482;2023-09-30T13:05:49;13.30;84.20
32506;DHT22;18955;51.224;8.482;2023-09-30T13:08:16;13.30;84.30
32506;DHT22;18955;51.224;8.482;2023-09-30T13:10:42;13.30;84.20
32506;DHT22;18955;51.224;8.482;2023-09-30T13:13:10;13.30;84.30
32506;DHT22;18955;51.224;8.482;2023-09-30T13:15:36;13.30;84.40
32506;DHT22;18955;51.224;8.482;2023-09-30T13:18:04;13.30;84.30
32506;DHT22;18955;51.224;8.482;2023-09-30T13:20:31;13.30;84.30
32506;DHT22;18955;51.224;8.482;2023-09-30T13:22:57;13.30;84.50
32506;DHT22;18955;51.224;8.482;2023-09-30T13:25:24;13.40;84.50
32506;DHT22;18955;51.224;8.482;2023-09-30T13:27:52;13.40;84.50
32506;DHT22;18955;51.224;8.482;2023-09-30T13:30:18;13.40;84.50
32506;DHT22;18955;51.224;8.482;2023-09-30T13:32:44;13.40;84.40
32506;DHT22;18955;51.224;8.482;2023-09-30T13:35:11;13.40;84.30
32506;DHT22;18955;51.224;8.482;2023-09-30T13:37:37;13.40;84.20
32506;DHT22;18955;51.224;8.482;2023-09-30T13:40:04;13.50;84.60
32506;DHT22;18955;51.224;8.482;2023-09-30T13:42:30;13.50;84.50
32506;DHT22;18955;51.224;8.482;2023-09-30T13:44:57;13.50;84.60
32506;DHT22;18955;51.224;8.482;2023-09-30T13:47:25;13.60;84.30
32506;DHT22;18955;51.224;8.482;2023-09-30T13:49:51;13.60;84.50
32506;DHT22;18955;51.224;8.482;2023-09-30T13:52:18;13.60;84.30
32506;DHT22;18955;51.224;8.482;2023-09-30T13:54:44;13.70;84.30
32506;DHT22;18955;51.224;8.482;2023-09-30T13:57:10;13.70;84.30
32506;DHT22;18955;51.224;8.482;2023-09-30T13:59:36;13.80;84.30
32506;DHT22;18955;51.224;8.482;2023-09-30T14:02:03;13.90;84.10
32506;DHT22;18955;51.224;8.482;2023-09-30T14:04:32;13.90;84.60
32506;DHT22;18955;51.224;8.482;2023-09-30T14:06:59;13.90;84.00
32506;DHT22;18955;51.224;8.482;2023-09-30T14:09:31;14.00;83.80
32506;DHT22;18955;51.224;8.482;2023-09-30T14:11:57;14.10;83.90
32506;DHT22;18955;51.224;8.482;2023-09-30T14:14:25;14.10;83.70
32506;DHT22;18955;51.224;8.482;2023-09-30T14:16:52;14.10;83.80
32506;DHT22;18955;51.224;8.482;2023-09-30T14:19:18;14.10;83.80
32506;DHT22;18955;51.224;8.482;2023-09-30T14:21:44;14.20;83.70
32506;DHT22;18955;51.224;8.482;2023-09-30T14:24:11;14.20;83.70
32506;DHT22;18955;51.224;8.482;2023-09-30T14:26:38;14.20;83.40
32506;DHT22;18955;51.224;8.482;2023-09-30T14:29:05;14.30;83.50
32506;DHT22;18955;51.224;8.482;2023-09-30T14:31:31;14.40;83.70
32506;DHT22;18955;51.224;8.482;2023-09-30T14:33:57;14.40;83.30
32506;DHT22;18955;51.224;8.482;2023-09-30T14:36:23;14.40;83.70
32506;DHT22;18955;51.224;8.482;2023-09-30T14:38:50;14.40;83.00
32506;DHT22;18955;51.224;8.482;2023-09-30T14:41:16;14.30;82.90
32506;DHT22;18955;51.224;8.482;2023-09-30T14:43:43;14.30;82.40
32506;DHT22;18955;51.224;8.482;2023-09-30T14:46:10;14.20;82.00
32506;DHT22;18955;51.224;8.482;2023-09-30T14:48:36;14.20;82.20
32506;DHT22;18955;51.224;8.482;2023-09-30T14:51:02;14.20;81.50
32506;DHT22;18955;51.224;8.482;2023-09-30T14:53:32;14.10;81.20
32506;DHT22;18955;51.224;8.482;2023-09-30T14:55:58;14.10;80.90
32506;DHT22;18955;51.224;8.482;2023-09-30T14:58:24;14.10;81.80
32506;DHT22;18955;51.224;8.482;2023-09-30T15:00:50;14.10;82.60
32506;DHT22;18955;51.224;8.482;2023-09-30T15:03:17;14.10;82.70
32506;DHT22;18955;51.224;8.482;2023-09-30T15:05:43;14.20;82.60
32506;DHT22;18955;51.224;8.482;2023-09-30T15:08:09;14.20;82.90
32506;DHT22;18955;51.224;8.482;2023-09-30T15:10:36;14.20;82.70
32506;DHT22;18955;51.224;8.482;2023-09-30T15:13:02;14.20;82.90
32506;DHT22;18955;51.224;8.482;2023-09-30T15:15:31;14.20;83.10
32506;DHT22;18955;51.224;8.482;2023-09-30T15:18:01;14.20;83.00
32506;DHT22;18955;51.224;8.482;2023-09-30T15:20:27;14.30;83.40
32506;DHT22;18955;51.224;8.482;2023-09-30T15:22:53;14.30;83.40
32506;DHT22;18955;51.224;8.482;2023-09-30T15:25:19;14.30;83.40
32506;DHT22;18955;51.224;8.482;2023-09-30T15:27:46;14.30;83.50
32506;DHT22;18955;51.224;8.482;2023-09-30T15:30:13;14.40;83.60
32506;DHT22;18955;51.224;8.482;2023-09-30T15:32:40;14.40;83.60
32506;DHT22;18955;51.224;8.482;2023-09-30T15:35:09;14.40;83.60
32506;DHT22;18955;51.224;8.482;2023-09-30T15:37:36;14.40;83.60
32506;DHT22;18955;51.224;8.482;2023-09-30T15:40:02;14.40;83.50
32506;DHT22;18955;51.224;8.482;2023-09-30T15:42:28;14.40;83.60
32506;DHT22;18955;51.224;8.482;2023-09-30T15:44:55;14.40;83.60
32506;DHT22;18955;51.224;8.482;2023-09-30T15:47:22;14.40;83.30
32506;DHT22;18955;51.224;8.482;2023-09-30T15:49:48;14.40;83.40
32506;DHT22;18955;51.224;8.482;2023-09-30T15:52:14;14.40;83.30
32506;DHT22;18955;51.224;8.482;2023-09-30T15:54:40;14.40;83.40
32506;DHT22;18955;51.224;8.482;2023-09-30T15:57:06;14.50;83.50